createdAt,value
2019-06-10T00:01:13.385Z,1.90
2019-06-10T00:03:42.100Z,1.90
2019-06-10T00:06:08.552Z,2.20
2019-06-10T00:08:35.019Z,2.10
2019-06-10T00:11:04.431Z,1.90
2019-06-10T00:13:31.390Z,1.80
2019-06-10T00:15:59.272Z,1.80
2019-06-10T00:18:38.764Z,1.80
2019-06-10T00:20:54.707Z,1.70
2019-06-10T00:23:21.425Z,1.73
2019-06-10T00:25:48.088Z,2.00
2019-06-10T00:28:14.502Z,1.97
2019-06-10T00:30:41.625Z,1.80
2019-06-10T00:33:11.588Z,1.87
2019-06-10T00:35:40.936Z,1.90
2019-06-10T00:38:08.721Z,2.10
2019-06-10T00:40:35.428Z,2.00
2019-06-10T00:43:03.799Z,2.17
2019-06-10T00:45:31.549Z,1.80
2019-06-10T00:48:07.594Z,2.00
2019-06-10T00:50:26.552Z,1.80
2019-06-10T00:52:53.027Z,2.10
2019-06-10T00:55:21.214Z,2.13
2019-06-10T00:57:47.761Z,1.93
2019-06-10T01:00:25.156Z,1.80
2019-06-10T01:02:44.283Z,2.00
2019-06-10T01:05:12.541Z,1.80
2019-06-10T01:07:41.445Z,1.90
2019-06-10T01:10:08.987Z,2.00
2019-06-10T01:12:35.550Z,1.80
2019-06-10T01:15:03.266Z,1.90
2019-06-10T01:17:31.111Z,1.97
2019-06-10T01:19:57.888Z,2.17
2019-06-10T01:22:24.361Z,1.90
2019-06-10T01:24:51.149Z,2.03
2019-06-10T01:27:18.066Z,2.00
2019-06-10T01:29:44.620Z,1.93
2019-06-10T01:32:12.248Z,2.20
2019-06-10T01:34:41.534Z,2.07
2019-06-10T01:37:09.371Z,1.90
2019-06-10T01:39:36.065Z,1.87
2019-06-10T01:42:02.543Z,2.10
2019-06-10T01:44:31.017Z,2.13
2019-06-10T01:46:57.273Z,2.20
2019-06-10T01:49:23.588Z,2.30
2019-06-10T01:51:51.623Z,2.00
2019-06-10T01:54:18.553Z,2.30
2019-06-10T01:56:45.572Z,2.10
2019-06-10T01:59:13.802Z,2.07
2019-06-10T02:01:42.158Z,2.50
2019-06-10T02:04:08.703Z,2.27
2019-06-10T02:06:35.298Z,2.20
2019-06-10T02:09:04.904Z,2.17
2019-06-10T02:11:34.028Z,2.10
2019-06-10T02:14:01.308Z,2.57
2019-06-10T02:16:27.898Z,1.90
2019-06-10T02:19:00.145Z,1.90
2019-06-10T02:21:24.535Z,2.03
2019-06-10T02:23:52.085Z,2.20
2019-06-10T02:26:19.910Z,2.37
2019-06-10T02:28:47.397Z,2.20
2019-06-10T02:31:17.247Z,2.00
2019-06-10T02:33:42.334Z,2.20
2019-06-10T02:36:08.745Z,2.40
2019-06-10T02:38:39.242Z,2.30
2019-06-10T02:41:04.820Z,2.00
2019-06-10T02:43:36.805Z,2.17
2019-06-10T02:46:03.913Z,2.30
2019-06-10T02:48:30.494Z,2.27
2019-06-10T02:51:04.407Z,2.23
2019-06-10T02:53:35.699Z,2.40
2019-06-10T02:56:00.350Z,2.20
2019-06-10T02:58:33.259Z,2.60
2019-06-10T03:00:55.552Z,2.37
2019-06-10T03:03:33.286Z,2.40
2019-06-10T03:05:53.560Z,2.23
2019-06-10T03:08:22.175Z,2.20
2019-06-10T03:10:47.241Z,2.00
2019-06-10T03:13:13.759Z,2.83
2019-06-10T03:15:44.788Z,2.27
2019-06-10T03:18:12.920Z,2.40
2019-06-10T03:20:39.372Z,2.13
2019-06-10T03:23:05.759Z,2.33
2019-06-10T03:25:32.808Z,2.33
2019-06-10T03:27:59.257Z,2.13
2019-06-10T03:30:37.457Z,2.40
2019-06-10T03:32:55.590Z,1.73
2019-06-10T03:35:24.220Z,1.90
2019-06-10T03:37:52.694Z,2.43
2019-06-10T03:40:18.735Z,2.10
2019-06-10T03:42:45.426Z,2.30
2019-06-10T03:45:12.820Z,2.40
2019-06-10T03:47:39.415Z,2.30
2019-06-10T03:50:06.385Z,2.23
2019-06-10T03:52:33.000Z,2.40
2019-06-10T03:54:59.287Z,2.23
2019-06-10T03:57:26.917Z,2.10
2019-06-10T03:59:53.918Z,2.37
2019-06-10T04:02:23.449Z,2.23
2019-06-10T04:04:48.827Z,2.20
2019-06-10T04:07:15.252Z,2.00
2019-06-10T04:09:42.524Z,1.80
2019-06-10T04:12:09.062Z,2.30
2019-06-10T04:14:35.357Z,2.50
2019-06-10T04:17:02.721Z,2.33
2019-06-10T04:19:29.192Z,2.20
2019-06-10T04:21:56.075Z,2.67
2019-06-10T04:24:24.236Z,2.27
2019-06-10T04:26:52.153Z,2.37
2019-06-10T04:29:19.881Z,2.53
2019-06-10T04:31:46.872Z,2.33
2019-06-10T04:34:13.237Z,2.50
2019-06-10T04:36:42.243Z,3.00
2019-06-10T04:39:08.649Z,2.57
2019-06-10T04:41:35.054Z,2.50
2019-06-10T04:44:02.713Z,2.33
2019-06-10T04:46:29.634Z,2.53
2019-06-10T04:48:56.759Z,2.50
2019-06-10T04:51:24.929Z,2.20
2019-06-10T04:53:52.572Z,2.27
2019-06-10T04:56:19.707Z,2.50
2019-06-10T04:58:46.371Z,2.63
2019-06-10T05:01:12.664Z,2.73
2019-06-10T05:03:39.129Z,2.10
2019-06-10T05:06:05.577Z,2.57
2019-06-10T05:08:33.651Z,2.50
2019-06-10T05:11:00.486Z,2.40
2019-06-10T05:13:28.256Z,2.60
2019-06-10T05:15:55.003Z,2.37
2019-06-10T05:18:23.581Z,2.90
2019-06-10T05:20:57.665Z,2.93
2019-06-10T05:23:17.869Z,3.23
2019-06-10T05:25:44.398Z,2.70
2019-06-10T05:28:12.274Z,2.67
2019-06-10T05:30:38.904Z,3.30
2019-06-10T05:33:05.407Z,3.00
2019-06-10T05:35:33.914Z,2.83
2019-06-10T05:38:02.417Z,2.83
2019-06-10T05:40:29.379Z,2.80
2019-06-10T05:42:55.844Z,2.57
2019-06-10T05:45:24.651Z,2.37
2019-06-10T05:47:53.035Z,2.60
2019-06-10T05:50:19.071Z,3.13
2019-06-10T05:52:45.532Z,2.80
2019-06-10T05:55:12.286Z,3.10
2019-06-10T05:57:38.751Z,3.03
2019-06-10T06:00:13.849Z,2.73
2019-06-10T06:02:35.877Z,3.00
2019-06-10T06:05:06.072Z,2.70
2019-06-10T06:07:34.317Z,2.50
2019-06-10T06:10:02.472Z,2.60
2019-06-10T06:12:29.311Z,2.93
2019-06-10T06:14:55.992Z,3.00
2019-06-10T06:17:23.569Z,2.47
2019-06-10T06:19:50.183Z,3.50
2019-06-10T06:22:16.595Z,2.83
2019-06-10T06:24:43.213Z,2.70
2019-06-10T06:27:09.749Z,2.60
2019-06-10T06:29:38.172Z,2.70
2019-06-10T06:32:04.920Z,2.70
2019-06-10T06:34:35.128Z,2.50
2019-06-10T06:37:02.097Z,2.87
2019-06-10T06:39:29.014Z,3.10
2019-06-10T06:41:55.444Z,2.70
2019-06-10T06:44:23.365Z,2.77
2019-06-10T06:46:50.048Z,2.77
2019-06-10T06:49:16.353Z,3.10
2019-06-10T06:51:54.645Z,2.90
2019-06-10T06:54:12.583Z,2.77
2019-06-10T06:56:40.467Z,3.30
2019-06-10T06:59:07.608Z,3.10
2019-06-10T07:01:37.319Z,2.98
2019-06-10T07:04:03.299Z,3.33
2019-06-10T07:06:32.469Z,3.10
2019-06-10T07:09:05.437Z,2.80
2019-06-10T07:11:33.946Z,3.23
2019-06-10T07:14:03.816Z,3.30
2019-06-10T07:16:33.767Z,3.37
2019-06-10T07:18:59.053Z,3.20
2019-06-10T07:21:25.704Z,1.90
2019-06-10T07:23:52.801Z,2.10
2019-06-10T07:26:22.012Z,2.30
2019-06-10T07:28:47.951Z,2.20
2019-06-10T07:31:23.211Z,2.77
2019-06-10T07:33:45.838Z,2.50
2019-06-10T07:36:13.212Z,2.20
2019-06-10T07:38:42.395Z,3.37
2019-06-10T07:41:08.384Z,3.40
2019-06-10T07:43:38.285Z,2.47
2019-06-10T07:46:03.672Z,2.27
2019-06-10T07:48:33.491Z,2.40
2019-06-10T07:50:59.304Z,2.47
2019-06-10T07:53:25.804Z,2.60
2019-06-10T07:55:53.563Z,2.57
2019-06-10T07:58:22.391Z,3.90
2019-06-10T08:00:48.777Z,3.50
2019-06-10T08:03:15.268Z,2.97
2019-06-10T08:05:44.402Z,3.50
2019-06-10T08:08:12.862Z,2.60
2019-06-10T08:10:39.152Z,2.80
2019-06-10T08:13:05.795Z,2.50
2019-06-10T08:15:32.593Z,2.43
2019-06-10T08:17:59.220Z,3.00
2019-06-10T08:20:45.244Z,3.20
2019-06-10T08:23:17.543Z,3.10
2019-06-10T08:25:51.018Z,2.90
2019-06-10T08:28:13.893Z,3.10
2019-06-10T08:30:43.024Z,2.97
2019-06-10T08:33:10.155Z,2.60
2019-06-10T08:35:44.508Z,3.53
2019-06-10T08:38:05.409Z,3.40
2019-06-10T08:40:32.567Z,3.17
2019-06-10T08:42:59.340Z,3.00
2019-06-10T08:45:26.038Z,4.03
2019-06-10T08:47:54.189Z,3.67
2019-06-10T08:50:22.332Z,3.80
2019-06-10T08:53:06.044Z,6.73
2019-06-10T08:55:18.234Z,7.20
2019-06-10T08:57:48.799Z,24.07
2019-06-10T09:00:15.528Z,8.57
2019-06-10T09:02:46.884Z,31.07
2019-06-10T09:05:16.891Z,29.20
2019-06-10T09:07:48.036Z,27.00
2019-06-10T09:12:45.254Z,15.13
2019-06-10T09:15:12.926Z,4.57
2019-06-10T09:17:40.180Z,4.77
2019-06-10T09:20:10.255Z,5.93
2019-06-10T09:22:36.988Z,3.60
2019-06-10T09:25:08.854Z,5.07
2019-06-10T09:27:35.423Z,3.30
2019-06-10T09:30:05.112Z,3.30
2019-06-10T09:32:32.544Z,3.13
2019-06-10T09:34:59.352Z,3.50
2019-06-10T09:37:25.994Z,3.10
2019-06-10T09:39:59.218Z,3.80
2019-06-10T09:42:23.265Z,3.37
2019-06-10T09:44:51.785Z,3.20
2019-06-10T09:47:19.274Z,2.80
2019-06-10T09:49:49.265Z,2.87
2019-06-10T09:52:16.128Z,2.43
2019-06-10T09:54:47.248Z,2.87
2019-06-10T09:57:12.686Z,3.17
2019-06-10T09:59:40.460Z,2.77
2019-06-10T10:02:07.927Z,2.80
2019-06-10T10:04:37.575Z,3.40
2019-06-10T10:07:04.589Z,3.13
2019-06-10T10:09:36.768Z,3.20
2019-06-10T10:12:02.876Z,2.90
2019-06-10T10:14:29.243Z,2.70
2019-06-10T10:17:00.307Z,2.90
2019-06-10T10:19:24.685Z,3.00
2019-06-10T10:21:56.088Z,2.50
2019-06-10T10:24:19.619Z,2.80
2019-06-10T10:26:48.563Z,2.60
2019-06-10T10:29:14.840Z,2.53
2019-06-10T10:31:45.012Z,2.60
2019-06-10T10:34:09.948Z,2.47
2019-06-10T10:36:36.688Z,2.70
2019-06-10T10:39:07.227Z,2.57
2019-06-10T10:41:35.449Z,3.00
2019-06-10T10:44:03.152Z,2.60
2019-06-10T10:46:29.832Z,3.17
2019-06-10T10:48:56.643Z,3.50
2019-06-10T10:51:23.440Z,3.43
2019-06-10T10:54:15.507Z,3.20
2019-06-10T10:56:18.708Z,2.97
2019-06-10T10:58:47.208Z,3.00
2019-06-10T11:01:15.114Z,3.07
2019-06-10T11:03:43.972Z,2.67
2019-06-10T11:06:12.901Z,2.73
2019-06-10T11:08:39.088Z,2.80
2019-06-10T11:11:06.153Z,3.23
2019-06-10T11:13:35.620Z,2.90
2019-06-10T11:16:03.566Z,2.80
2019-06-10T11:18:30.294Z,3.13
2019-06-10T11:21:00.351Z,2.70
2019-06-10T11:23:25.358Z,3.07
2019-06-10T11:25:56.590Z,3.30
2019-06-10T11:28:22.639Z,2.80
2019-06-10T11:30:49.410Z,2.60
2019-06-10T11:33:16.179Z,3.30
2019-06-10T11:35:42.918Z,2.70
2019-06-10T11:38:09.443Z,3.00
2019-06-10T11:40:36.248Z,2.83
2019-06-10T11:43:03.103Z,2.80
2019-06-10T11:45:29.745Z,3.27
2019-06-10T11:47:58.205Z,2.60
2019-06-10T11:50:25.348Z,3.00
2019-06-10T11:52:55.420Z,2.73
2019-06-10T11:55:23.116Z,2.90
2019-06-10T11:57:49.816Z,2.63
2019-06-10T12:00:17.930Z,2.80
2019-06-10T12:02:44.949Z,2.73
2019-06-10T12:05:13.039Z,2.43
2019-06-10T12:07:42.563Z,2.87
2019-06-10T12:10:09.345Z,3.10
2019-06-10T12:12:36.836Z,2.97
2019-06-10T12:15:06.884Z,3.03
2019-06-10T12:17:43.122Z,2.80
2019-06-10T12:20:06.404Z,2.90
2019-06-10T12:22:33.242Z,2.93
2019-06-10T12:25:26.369Z,2.80
2019-06-10T12:27:28.825Z,2.57
2019-06-10T12:29:56.755Z,3.10
2019-06-10T12:32:24.154Z,2.90
2019-06-10T12:34:51.259Z,3.10
2019-06-10T12:37:18.127Z,2.87
2019-06-10T12:39:44.841Z,2.83
2019-06-10T12:42:14.121Z,2.80
2019-06-10T12:44:42.715Z,2.77
2019-06-10T12:47:08.477Z,2.77
2019-06-10T12:49:35.524Z,2.87
2019-06-10T12:52:06.962Z,3.13
2019-06-10T12:54:32.627Z,2.40
2019-06-10T12:57:00.446Z,3.13
2019-06-10T12:59:27.204Z,2.63
2019-06-10T13:01:55.749Z,2.47
2019-06-10T13:04:22.826Z,3.00
2019-06-10T13:06:52.570Z,2.67
2019-06-10T13:09:19.043Z,2.70
2019-06-10T13:11:45.590Z,3.10
2019-06-10T13:14:13.010Z,2.70
2019-06-10T13:16:40.636Z,2.87
2019-06-10T13:19:08.286Z,2.90
2019-06-10T13:21:34.995Z,2.70
2019-06-10T13:24:03.662Z,2.70
2019-06-10T13:26:32.971Z,2.83
2019-06-10T13:28:59.008Z,2.70
2019-06-10T13:31:25.657Z,2.90
2019-06-10T13:33:52.953Z,2.80
2019-06-10T13:36:23.619Z,2.73
2019-06-10T13:38:48.220Z,2.70
2019-06-10T13:41:14.946Z,2.73
2019-06-10T13:43:43.465Z,2.50
2019-06-10T13:46:10.973Z,2.47
2019-06-10T13:48:37.773Z,2.70
2019-06-10T13:51:08.579Z,2.57
2019-06-10T13:53:32.953Z,2.70
2019-06-10T13:56:21.987Z,2.53
2019-06-10T13:58:47.854Z,2.33
2019-06-10T14:01:21.715Z,2.77
2019-06-10T14:03:43.918Z,2.63
2019-06-10T14:06:31.388Z,2.70
2019-06-10T14:08:39.430Z,2.47
2019-06-10T14:11:07.431Z,2.30
2019-06-10T14:13:34.674Z,2.73
2019-06-10T14:16:01.451Z,2.83
2019-06-10T14:18:28.125Z,2.73
2019-06-10T14:20:54.728Z,2.80
2019-06-10T14:23:22.005Z,2.33
2019-06-10T14:25:48.913Z,2.50
2019-06-10T14:28:34.933Z,2.80
2019-06-10T14:30:44.037Z,2.33
2019-06-10T14:33:13.767Z,2.50
2019-06-10T14:35:39.091Z,2.47
2019-06-10T14:38:06.488Z,2.70
2019-06-10T14:40:33.381Z,2.77
2019-06-10T14:42:59.967Z,3.10
2019-06-10T14:45:26.859Z,2.40
2019-06-10T14:47:54.395Z,2.60
2019-06-10T14:50:26.114Z,2.73
2019-06-10T14:52:53.700Z,2.87
2019-06-10T14:55:20.233Z,3.67
2019-06-10T14:57:46.769Z,2.83
2019-06-10T15:00:17.680Z,3.83
2019-06-10T15:02:43.040Z,3.17
2019-06-10T15:05:11.249Z,3.20
2019-06-10T15:07:37.980Z,2.90
2019-06-10T15:10:05.496Z,2.73
2019-06-10T15:12:32.730Z,3.50
2019-06-10T15:14:59.538Z,2.70
2019-06-10T15:17:26.007Z,3.67
2019-06-10T15:19:53.071Z,3.13
2019-06-10T15:22:20.081Z,3.07
2019-06-10T15:24:46.837Z,3.40
2019-06-10T15:27:21.982Z,3.07
2019-06-10T15:29:43.125Z,3.00
2019-06-10T15:32:19.113Z,2.90
2019-06-10T15:34:42.908Z,3.30
2019-06-10T15:37:09.097Z,3.60
2019-06-10T15:39:35.539Z,3.70
2019-06-10T15:42:03.082Z,3.27
2019-06-10T15:44:47.569Z,3.50
2019-06-10T15:46:58.374Z,3.27
2019-06-10T15:49:26.155Z,2.93
2019-06-10T15:51:53.042Z,4.00
2019-06-10T15:54:21.486Z,3.40
2019-06-10T15:56:52.959Z,3.57
2019-06-10T15:59:18.299Z,3.00
2019-06-10T16:01:45.177Z,3.43
2019-06-10T16:04:14.062Z,3.47
2019-06-10T16:06:42.365Z,3.20
2019-06-10T16:09:08.601Z,3.60
2019-06-10T16:11:36.044Z,3.33
2019-06-10T16:14:03.646Z,3.10
2019-06-10T16:16:32.418Z,3.60
2019-06-10T16:18:58.765Z,3.60
2019-06-10T16:21:25.273Z,3.80
2019-06-10T16:23:53.336Z,3.33
2019-06-10T16:26:20.125Z,3.20
2019-06-10T16:28:46.940Z,3.40
2019-06-10T16:31:15.272Z,3.40
2019-06-10T16:33:49.315Z,3.23
2019-06-10T16:36:12.232Z,3.13
2019-06-10T16:38:39.228Z,3.43
2019-06-10T16:41:05.891Z,3.50
2019-06-10T16:43:33.468Z,3.03
2019-06-10T16:46:03.051Z,3.50
2019-06-10T16:48:29.716Z,3.53
2019-06-10T16:50:56.356Z,3.30
2019-06-10T16:53:26.722Z,3.50
2019-06-10T16:55:52.923Z,3.53
2019-06-10T16:58:21.159Z,3.40
2019-06-10T17:00:48.400Z,3.30
2019-06-10T17:03:15.019Z,3.67
2019-06-10T17:05:42.587Z,3.80
2019-06-10T17:08:09.366Z,3.80
2019-06-10T17:10:35.997Z,3.40
2019-06-10T17:13:04.828Z,3.43
2019-06-10T17:15:31.427Z,4.00
2019-06-10T17:17:58.143Z,3.77
2019-06-10T17:20:26.284Z,4.07
2019-06-10T17:22:53.356Z,4.90
2019-06-10T17:25:23.266Z,5.30
2019-06-10T17:27:48.704Z,4.97
2019-06-10T17:30:16.309Z,4.77
2019-06-10T17:32:43.184Z,4.60
2019-06-10T17:35:12.595Z,4.83
2019-06-10T17:37:39.249Z,5.43
2019-06-10T17:40:06.914Z,4.97
2019-06-10T17:42:38.208Z,4.07
2019-06-10T17:45:03.361Z,3.50
2019-06-10T17:47:34.627Z,3.93
2019-06-10T17:50:02.331Z,3.37
2019-06-10T17:52:30.664Z,3.70
2019-06-10T17:54:58.380Z,3.40
2019-06-10T17:57:27.090Z,3.63
2019-06-10T17:59:53.689Z,3.80
2019-06-10T18:02:22.653Z,3.67
2019-06-10T18:04:49.911Z,3.40
2019-06-10T18:07:16.644Z,3.43
2019-06-10T18:09:43.721Z,3.80
2019-06-10T18:12:12.853Z,3.83
2019-06-10T18:14:39.262Z,4.10
2019-06-10T18:17:06.164Z,3.77
2019-06-10T18:19:35.917Z,3.80
2019-06-10T18:22:03.056Z,3.27
2019-06-10T18:24:30.887Z,3.23
2019-06-10T18:26:57.978Z,3.87
2019-06-10T18:29:25.172Z,3.57
2019-06-10T18:31:53.005Z,3.93
2019-06-10T18:34:22.532Z,3.40
2019-06-10T18:36:48.766Z,3.50
2019-06-10T18:39:15.551Z,3.20
2019-06-10T18:41:43.872Z,3.37
2019-06-10T18:44:20.994Z,3.33
2019-06-10T18:46:40.187Z,3.53
2019-06-10T18:49:07.676Z,3.10
2019-06-10T18:51:37.273Z,3.73
2019-06-10T18:54:03.819Z,3.20
2019-06-10T18:56:33.678Z,3.00
2019-06-10T18:59:13.529Z,3.40
2019-06-10T19:01:28.267Z,3.30
2019-06-10T19:03:55.169Z,3.23
2019-06-10T19:06:22.914Z,3.13
2019-06-10T19:08:52.908Z,3.10
2019-06-10T19:11:18.745Z,2.90
2019-06-10T19:13:45.526Z,3.50
2019-06-10T19:16:12.933Z,3.47
2019-06-10T19:18:42.988Z,3.80
2019-06-10T19:21:09.119Z,3.60
2019-06-10T19:23:37.802Z,3.40
2019-06-10T19:26:04.591Z,3.63
2019-06-10T19:28:33.828Z,3.33
2019-06-10T19:31:02.268Z,3.63
2019-06-10T19:33:28.967Z,3.47
2019-06-10T19:35:55.662Z,4.43
2019-06-10T19:38:23.227Z,4.17
2019-06-10T19:40:52.115Z,4.30
2019-06-10T19:43:18.904Z,4.00
2019-06-10T19:45:46.885Z,4.77
2019-06-10T19:48:13.788Z,4.53
2019-06-10T19:50:46.950Z,4.30
2019-06-10T19:53:09.249Z,4.60
2019-06-10T19:55:36.965Z,4.93
2019-06-10T19:58:04.001Z,4.97
2019-06-10T20:00:33.154Z,4.50
2019-06-10T20:02:59.932Z,4.17
2019-06-10T20:05:26.779Z,4.00
2019-06-10T20:07:53.539Z,4.07
2019-06-10T20:10:22.981Z,4.20
2019-06-10T20:12:49.006Z,4.37
2019-06-10T20:15:24.068Z,4.00
2019-06-10T20:17:52.505Z,3.97
2019-06-10T20:20:22.737Z,4.40
2019-06-10T20:22:48.988Z,3.70
2019-06-10T20:25:15.889Z,3.73
2019-06-10T20:27:44.307Z,4.03
2019-06-10T20:30:24.393Z,5.10
2019-06-10T20:32:45.501Z,5.00
2019-06-10T20:35:12.473Z,5.40
2019-06-10T20:37:39.613Z,5.67
2019-06-10T20:40:06.754Z,5.67
2019-06-10T20:42:33.635Z,5.67
2019-06-10T20:45:02.775Z,5.80
2019-06-10T20:47:28.584Z,4.60
2019-06-10T20:49:56.242Z,3.93
2019-06-10T20:52:23.094Z,3.70
2019-06-10T20:54:50.071Z,3.40
2019-06-10T20:57:16.846Z,3.07
2019-06-10T20:59:45.257Z,2.90
2019-06-10T21:02:13.550Z,2.77
2019-06-10T21:04:41.702Z,3.10
2019-06-10T21:07:12.638Z,3.20
2019-06-10T21:09:44.086Z,3.13
2019-06-10T21:12:10.057Z,3.53
2019-06-10T21:14:36.920Z,3.53
2019-06-10T21:17:03.675Z,3.60
2019-06-10T21:19:30.398Z,3.50
2019-06-10T21:21:57.030Z,3.60
2019-06-10T21:24:23.804Z,3.60
2019-06-10T21:26:54.303Z,3.67
2019-06-10T21:29:19.001Z,3.43
2019-06-10T21:31:47.299Z,3.40
2019-06-10T21:34:14.000Z,3.50
2019-06-10T21:36:41.223Z,3.63
2019-06-10T21:39:07.904Z,3.67
2019-06-10T21:41:34.719Z,3.70
2019-06-10T21:44:03.229Z,3.80
2019-06-10T21:46:29.791Z,3.73
2019-06-10T21:48:56.591Z,3.20
2019-06-10T21:51:23.492Z,4.30
2019-06-10T21:53:51.298Z,4.10
2019-06-10T21:56:18.598Z,3.90
2019-06-10T21:58:46.814Z,4.10
2019-06-10T22:01:16.874Z,4.40
2019-06-10T22:03:44.444Z,4.60
2019-06-10T22:06:12.344Z,3.90
2019-06-10T22:08:39.098Z,4.00
2019-06-10T22:11:05.486Z,4.07
2019-06-10T22:13:32.827Z,4.50
2019-06-10T22:15:59.608Z,4.87
2019-06-10T22:18:26.522Z,4.50
2019-06-10T22:20:55.987Z,4.30
2019-06-10T22:23:23.213Z,4.43
2019-06-10T22:25:53.614Z,4.23
2019-06-10T22:28:18.742Z,4.70
2019-06-10T22:30:45.515Z,4.63
2019-06-10T22:33:12.387Z,5.20
2019-06-10T22:35:38.876Z,5.30
2019-06-10T22:38:05.516Z,4.87
2019-06-10T22:40:32.823Z,4.83
2019-06-10T22:42:59.543Z,5.17
2019-06-10T22:45:26.065Z,5.63
2019-06-10T22:47:54.112Z,7.20
2019-06-10T22:50:22.977Z,8.10
2019-06-10T22:52:49.362Z,7.50
2019-06-10T22:55:15.876Z,6.87
2019-06-10T22:57:43.938Z,6.87
2019-06-10T23:00:13.183Z,7.30
2019-06-10T23:02:39.756Z,6.73
2019-06-10T23:05:06.891Z,6.97
2019-06-10T23:07:33.390Z,7.37
2019-06-10T23:09:59.790Z,7.47
2019-06-10T23:12:26.272Z,6.87
2019-06-10T23:14:53.639Z,7.67
2019-06-10T23:17:21.957Z,7.77
2019-06-10T23:19:49.230Z,7.03
2019-06-10T23:22:15.774Z,8.03
2019-06-10T23:24:42.654Z,7.80
2019-06-10T23:27:09.266Z,7.50
2019-06-10T23:29:35.597Z,7.87
2019-06-10T23:32:06.866Z,8.03
2019-06-10T23:34:32.899Z,7.50
2019-06-10T23:36:59.980Z,7.43
2019-06-10T23:39:26.854Z,7.77
2019-06-10T23:41:55.124Z,7.67
2019-06-10T23:44:22.893Z,7.33
2019-06-10T23:46:49.509Z,6.93
2019-06-10T23:49:15.905Z,7.07
2019-06-10T23:51:42.424Z,7.37
2019-06-10T23:54:08.791Z,6.80
2019-06-10T23:56:35.789Z,6.70
2019-06-10T23:59:03.468Z,6.20
